Time;durP1;ratioP1;P1;durP2;ratioP2;P2;SDS_P1;SDS_P2;PMS_P1;PMS_P2;Temp;Humidity;BMP_temperature;BMP_pressure;BME280_temperature;BME280_humidity;BME280_pressure;Samples;Min_cycle;Max_cycle;Signal;HPM_P1;HPM_P2
2021/12/10 01:44:28;;;;;;;39.63;11.18;;;;;;;2.19;96.10;99485.62;1800963;79;23144;-63
2021/12/10 01:46:50;;;;;;;25.17;11.73;;;;;;;2.12;96.17;99481.67;1757079;80;21510;-64
2021/12/10 01:49:17;;;;;;;26.82;16.85;;;;;;;2.14;96.37;99488.97;1741244;82;21027;-64
2021/12/10 01:51:43;;;;;;;28.02;12.75;;;;;;;2.19;96.37;99482.93;1749687;80;21545;-64
2021/12/10 01:54:14;;;;;;;;;;;;;;;2.24;96.33;99491.13;1752636;82;20999;-64
2021/12/10 01:56:40;;;;;;;11.30;7.90;;;;;;;2.29;96.29;99488.59;1728614;82;20405;-64
2021/12/10 01:59:09;;;;;;;14.63;8.40;;;;;;;2.28;96.36;99495.83;1737164;82;21074;-64
2021/12/10 02:01:41;;;;;;;20.88;7.78;;;;;;;2.28;96.45;99497.69;1733294;82;21063;-64
2021/12/10 02:04:10;;;;;;;30.23;18.00;;;;;;;2.25;96.67;99498.14;1730946;83;21030;-64
2021/12/10 02:06:38;;;;;;;12.37;8.35;;;;;;;2.25;96.86;99493.59;1730982;80;21030;-64
2021/12/10 02:09:04;;;;;;;7.28;5.37;;;;;;;2.31;96.94;99492.69;1738902;82;21003;-64
2021/12/10 02:11:31;;;;;;;7.47;6.00;;;;;;;2.35;96.89;99500.61;1750850;80;21094;-64
2021/12/10 02:13:57;;;;;;;11.05;7.20;;;;;;;2.36;96.93;99504.12;1695580;84;21358;-64
2021/12/10 02:16:43;;;;;;;8.48;5.80;;;;;;;2.36;96.96;99503.59;1692567;83;21604;-64
2021/12/10 02:19:10;;;;;;;12.28;6.60;;;;;;;2.38;96.98;99502.02;1689784;85;21636;-63
2021/12/10 02:21:39;;;;;;;13.53;7.45;;;;;;;2.40;97.04;99499.42;1693329;83;21053;-65
2021/12/10 02:24:06;;;;;;;8.48;6.40;;;;;;;2.42;97.05;99496.49;1686339;83;21116;-64
2021/12/10 02:27:28;;;;;;;15.53;6.80;;;;;;;2.45;97.03;99503.58;1700981;84;21030;-64
2021/12/10 02:29:54;;;;;;;9.70;6.25;;;;;;;2.44;97.04;99496.56;1693373;84;21036;-65
2021/12/10 02:32:22;;;;;;;10.50;7.00;;;;;;;2.43;97.15;99490.08;1696353;84;21170;-65
2021/12/10 02:34:50;;;;;;;8.60;5.53;;;;;;;2.44;97.22;99492.53;1697720;84;20999;-64
2021/12/10 02:37:16;;;;;;;12.98;7.65;;;;;;;2.46;97.21;99492.31;1697019;84;21606;-64
2021/12/10 02:39:43;;;;;;;9.08;7.10;;;;;;;2.48;97.18;99504.47;1699486;84;21018;-64
2021/12/10 02:42:09;;;;;;;15.28;8.55;;;;;;;2.50;97.17;99494.86;1700934;83;21661;-64
2021/12/10 02:44:36;;;;;;;13.72;7.83;;;;;;;2.51;97.20;99493.27;1690077;85;21044;-65
2021/12/10 02:47:03;;;;;;;10.23;7.60;;;;;;;2.48;97.32;99497.75;1685608;84;21131;-64
2021/12/10 02:49:30;;;;;;;11.30;7.20;;;;;;;2.47;97.49;99491.28;1679757;84;21084;-64
2021/12/10 02:51:57;;;;;;;17.07;8.38;;;;;;;2.51;97.57;99495.95;1679874;84;21115;-64
2021/12/10 02:54:33;;;;;;;12.93;8.13;;;;;;;2.57;97.51;99498.80;1680687;84;21645;-64
2021/12/10 02:56:53;;;;;;;12.37;6.90;;;;;;;2.59;97.45;99487.32;1677798;85;21107;-64
2021/12/10 02:59:19;;;;;;;14.68;9.00;;;;;;;2.61;97.42;99491.41;1679678;85;21101;-64
2021/12/10 03:01:49;;;;;;;13.68;8.75;;;;;;;2.63;97.44;99493.34;1666585;86;21051;-64
2021/12/10 03:04:18;;;;;;;11.83;7.97;;;;;;;2.66;97.43;99493.43;1666331;86;21444;-64
2021/12/10 03:06:53;;;;;;;;;;;;;;;2.69;97.52;99499.70;1676618;85;21062;-65
2021/12/10 03:09:22;;;;;;;10.25;7.00;;;;;;;2.72;97.58;99500.06;1673893;85;20111;-64
2021/12/10 03:11:49;;;;;;;13.32;8.75;;;;;;;2.72;97.74;99501.41;1667876;85;21108;-65
2021/12/10 03:14:25;;;;;;;16.02;9.63;;;;;;;2.72;97.96;99504.09;1693267;84;21050;-64
2021/12/10 03:16:54;;;;;;;14.43;9.45;;;;;;;2.75;98.25;99504.16;1684731;84;21080;-64
2021/12/10 03:19:20;;;;;;;12.95;9.23;;;;;;;2.80;98.31;99500.27;1688099;84;21062;-64
2021/12/10 03:21:47;;;;;;;13.75;9.05;;;;;;;2.83;98.22;99490.41;1686796;84;21630;-64
2021/12/10 03:24:16;;;;;;;12.25;8.83;;;;;;;2.86;98.16;99481.88;1686506;84;21046;-64
2021/12/10 03:26:42;;;;;;;18.02;10.18;;;;;;;2.90;98.09;99495.99;1695241;84;21098;-64
2021/12/10 03:29:09;;;;;;;15.40;10.15;;;;;;;2.91;98.02;99490.06;1671827;84;21029;-64
2021/12/10 03:31:35;;;;;;;14.87;9.98;;;;;;;2.92;98.00;99488.51;1693206;84;21052;-64
2021/12/10 03:34:02;;;;;;;15.90;10.00;;;;;;;2.95;98.03;99493.95;1678048;85;21101;-65
2021/12/10 03:36:29;;;;;;;15.43;11.15;;;;;;;2.98;98.07;99498.86;1683269;83;21082;-64
2021/12/10 03:38:56;;;;;;;14.30;10.00;;;;;;;2.95;98.20;99497.45;1679943;85;21061;-64
2021/12/10 03:41:22;;;;;;;14.70;9.93;;;;;;;2.97;98.42;99503.97;1685219;85;21595;-64
2021/12/10 03:43:50;;;;;;;17.50;10.90;;;;;;;3.03;98.52;99507.08;1688922;85;21075;-64
2021/12/10 03:46:16;;;;;;;14.87;10.08;;;;;;;3.07;98.51;99512.30;1692604;83;21081;-64
2021/12/10 03:48:45;;;;;;;18.25;10.93;;;;;;;3.10;98.55;99514.53;1693142;84;21027;-64
2021/12/10 03:51:16;;;;;;;13.88;9.80;;;;;;;3.13;98.53;99508.69;1693349;84;21058;-65
2021/12/10 03:53:43;;;;;;;14.38;10.28;;;;;;;3.15;98.50;99501.23;1695134;84;21061;-63
2021/12/10 03:56:15;;;;;;;15.40;10.70;;;;;;;3.17;98.57;99501.80;1693911;83;21058;-64
2021/12/10 03:58:42;;;;;;;18.48;10.98;;;;;;;3.20;98.65;99511.27;1694278;84;21556;-64
2021/12/10 04:01:10;;;;;;;12.73;9.23;;;;;;;3.21;98.74;99502.16;1694189;83;21078;-64
2021/12/10 04:03:39;;;;;;;14.60;10.53;;;;;;;3.23;98.74;99498.19;1690150;85;21087;-64
2021/12/10 04:06:05;;;;;;;15.80;10.63;;;;;;;3.27;98.78;99499.38;1689250;84;21082;-64
2021/12/10 04:08:32;;;;;;;14.73;11.15;;;;;;;3.28;98.78;99501.02;1701621;84;21018;-64
2021/12/10 04:10:59;;;;;;;17.75;11.45;;;;;;;3.30;98.83;99494.87;1696173;83;21531;-64
2021/12/10 04:13:25;;;;;;;18.98;11.35;;;;;;;3.33;98.89;99496.30;1680013;84;21041;-65
2021/12/10 04:15:52;;;;;;;15.58;11.10;;;;;;;3.33;98.96;99490.92;1697127;84;21042;-64
2021/12/10 04:25:28;;;;;;;15.95;11.38;;;;;;;3.47;99.15;99498.52;1799084;79;23081;-64
2021/12/10 04:27:58;;;;;;;16.05;10.90;;;;;;;3.42;99.29;99507.02;1737236;80;21145;-64
2021/12/10 04:30:25;;;;;;;18.80;12.28;;;;;;;3.43;99.51;99502.76;1751376;82;21468;-64
2021/12/10 04:32:52;;;;;;;29.67;16.90;;;;;;;3.47;99.49;99489.11;1749700;80;21075;-64
2021/12/10 04:35:19;;;;;;;21.23;12.03;;;;;;;3.47;99.45;99487.77;1733077;82;21062;-63
2021/12/10 04:37:49;;;;;;;21.25;14.40;;;;;;;3.48;99.36;99485.38;1748279;81;21501;-63
2021/12/10 04:40:21;;;;;;;20.40;13.53;;;;;;;3.49;99.26;99477.61;1733945;82;21003;-64
2021/12/10 04:42:46;;;;;;;18.77;12.73;;;;;;;3.50;99.15;99468.48;1708367;82;21035;-64
2021/12/10 04:45:14;;;;;;;20.32;13.32;;;;;;;3.47;99.21;99468.92;1727895;82;21011;-64
2021/12/10 04:47:41;;;;;;;18.42;12.60;;;;;;;3.48;99.24;99460.33;1731152;82;21146;-64
2021/12/10 04:50:09;;;;;;;20.52;14.05;;;;;;;3.49;99.12;99468.70;1730988;83;21070;-63
2021/12/10 04:52:35;;;;;;;21.55;14.35;;;;;;;3.48;99.04;99470.58;1743978;82;21054;-64
2021/12/10 04:55:05;;;;;;;19.00;13.90;;;;;;;3.49;98.96;99466.84;1733465;82;21525;-64
2021/12/10 04:57:31;;;;;;;21.70;14.43;;;;;;;3.48;98.93;99470.58;1738212;80;21067;-64
2021/12/10 04:59:58;;;;;;;21.42;13.75;;;;;;;3.44;99.05;99474.77;1750316;82;21529;-64
2021/12/10 05:02:25;;;;;;;21.37;14.28;;;;;;;3.44;99.14;99468.57;1734556;82;21046;-64
2021/12/10 05:04:56;;;;;;;19.30;12.93;;;;;;;3.44;99.12;99473.95;1738169;82;21035;-64
2021/12/10 05:07:19;;;;;;;18.90;11.90;;;;;;;3.46;99.04;99469.17;1749621;80;21043;-64
2021/12/10 05:09:46;;;;;;;20.15;13.62;;;;;;;3.47;98.95;99474.31;1749820;82;21062;-64
2021/12/10 05:12:12;;;;;;;20.12;13.25;;;;;;;3.46;98.87;99474.03;1751485;80;21055;-64
2021/12/10 05:14:39;;;;;;;20.20;14.15;;;;;;;3.43;98.76;99483.92;1710815;82;21058;-64
2021/12/10 05:17:07;;;;;;;20.15;13.83;;;;;;;3.39;98.96;99478.70;1731921;81;21079;-64
2021/12/10 05:19:36;;;;;;;19.20;13.45;;;;;;;3.39;99.03;99484.09;1729629;82;21140;-64
2021/12/10 05:22:05;;;;;;;22.73;15.30;;;;;;;3.40;99.06;99491.08;1725262;82;21097;-64
2021/12/10 05:24:33;;;;;;;23.12;15.60;;;;;;;3.40;99.07;99497.81;1740417;81;21042;-64
2021/12/10 05:26:59;;;;;;;22.95;15.55;;;;;;;3.40;99.10;99498.36;1693836;84;21060;-64
2021/12/10 05:29:25;;;;;;;24.20;15.78;;;;;;;3.41;99.12;99503.50;1698900;84;21053;-64
2021/12/10 05:31:55;;;;;;;22.70;16.07;;;;;;;3.41;99.13;99505.36;1691369;84;21069;-64
2021/12/10 05:34:21;;;;;;;24.50;15.50;;;;;;;3.38;99.25;99503.97;1691842;84;21104;-63
2021/12/10 05:36:47;;;;;;;21.87;14.95;;;;;;;3.39;99.40;99517.72;1686833;84;21057;-64
2021/12/10 05:39:14;;;;;;;23.67;15.68;;;;;;;3.41;99.45;99516.95;1676065;85;21645;-64
2021/12/10 05:41:41;;;;;;;26.68;17.00;;;;;;;3.43;99.46;99518.08;1685409;84;21078;-64
2021/12/10 05:44:07;;;;;;;23.38;15.35;;;;;;;3.44;99.50;99517.83;1731716;82;21529;-64
2021/12/10 05:46:34;;;;;;;;;;;;;;;3.47;99.50;99524.09;1737229;81;21078;-63
2021/12/10 05:49:01;;;;;;;22.67;15.65;;;;;;;3.48;99.51;99521.70;1729626;82;20162;-64
2021/12/10 05:51:27;;;;;;;;;;;;;;;3.48;99.62;99522.23;1742161;81;21015;-65
2021/12/10 05:53:53;;;;;;;32.35;20.65;;;;;;;3.48;99.74;99523.05;1727550;82;20433;-65
2021/12/10 05:56:19;;;;;;;30.72;20.60;;;;;;;3.48;99.83;99518.19;1719992;82;21071;-67
2021/12/10 05:58:46;;;;;;;33.25;23.02;;;;;;;3.51;99.90;99525.80;1734529;82;21508;-66
2021/12/10 06:01:15;;;;;;;33.63;22.20;;;;;;;3.49;100.00;99517.97;1733335;81;21112;-65
2021/12/10 06:03:49;;;;;;;31.57;20.50;;;;;;;3.53;100.00;99516.98;1711726;81;21050;-65
2021/12/10 06:06:10;;;;;;;32.50;20.92;;;;;;;3.56;99.90;99523.25;1732540;82;21011;-65
2021/12/10 06:08:38;;;;;;;31.05;20.37;;;;;;;3.58;99.78;99529.76;1726088;82;20998;-66
2021/12/10 06:11:06;;;;;;;35.98;21.90;;;;;;;3.58;99.73;99527.86;1732227;82;21037;-67
2021/12/10 06:13:34;;;;;;;37.35;22.37;;;;;;;3.60;99.76;99531.67;1728584;83;21536;-66
2021/12/10 06:16:02;;;;;;;27.90;17.95;;;;;;;3.60;99.81;99523.60;1722837;83;20998;-66
2021/12/10 06:18:28;;;;;;;32.10;19.82;;;;;;;3.62;99.84;99522.83;1724536;82;21477;-65
2021/12/10 06:20:55;;;;;;;37.80;22.20;;;;;;;3.63;99.86;99527.17;1720088;82;21013;-66
2021/12/10 06:23:21;;;;;;;34.45;21.35;;;;;;;3.65;99.87;99524.53;1724511;82;21068;-65
2021/12/10 06:25:48;;;;;;;63.20;30.85;;;;;;;3.66;99.89;99521.32;1709128;82;21117;-63
2021/12/10 06:28:15;;;;;;;46.68;25.17;;;;;;;3.67;100.00;99522.97;1726206;82;21626;-65
2021/12/10 06:30:44;;;;;;;47.10;26.00;;;;;;;3.71;100.00;99528.19;1715815;83;21011;-65
2021/12/10 06:33:13;;;;;;;61.42;28.57;;;;;;;3.76;100.00;99526.95;1718265;83;20996;-65
2021/12/10 06:35:41;;;;;;;58.33;28.95;;;;;;;3.79;99.93;99525.16;1721658;82;21052;-65
2021/12/10 06:38:08;;;;;;;58.83;28.90;;;;;;;3.80;99.87;99524.09;1735115;81;21024;-65
2021/12/10 06:40:35;;;;;;;60.25;30.50;;;;;;;3.83;99.80;99517.70;1726587;82;21507;-65
2021/12/10 06:43:03;;;;;;;42.30;24.07;;;;;;;3.86;99.71;99518.58;1737659;81;21122;-64
2021/12/10 06:45:29;;;;;;;40.10;25.10;;;;;;;3.89;99.64;99512.76;1737755;82;21031;-64
2021/12/10 06:47:58;;;;;;;34.58;21.77;;;;;;;3.88;99.65;99517.02;1723184;81;21099;-65
2021/12/10 06:50:27;;;;;;;29.85;20.12;;;;;;;3.88;99.81;99505.73;1715800;82;21054;-65
2021/12/10 06:52:54;;;;;;;31.97;22.02;;;;;;;3.92;99.83;99510.12;1729901;82;21605;-64
2021/12/10 06:55:21;;;;;;;;;;;;;;;3.92;99.80;99504.20;1737892;82;21142;-64
2021/12/10 06:57:47;;;;;;;31.15;19.82;;;;;;;3.96;99.77;99500.00;1731695;81;20393;-64
2021/12/10 07:00:22;;;;;;;30.32;20.32;;;;;;;3.93;99.84;99508.52;1721624;82;21090;-65
2021/12/10 07:02:49;;;;;;;29.10;20.05;;;;;;;3.96;99.98;99515.33;1733382;81;21801;-65
2021/12/10 07:05:15;;;;;;;28.83;19.25;;;;;;;3.95;100.00;99517.72;1728920;82;21063;-63
2021/12/10 07:07:45;;;;;;;24.92;18.00;;;;;;;3.95;100.00;99509.12;1717283;82;21138;-64
2021/12/10 07:10:13;;;;;;;26.70;17.10;;;;;;;4.01;100.00;99495.23;1723860;82;21012;-64
2021/12/10 07:12:40;;;;;;;26.40;17.55;;;;;;;4.05;100.00;99489.67;1704533;82;20999;-64
2021/12/10 07:15:09;;;;;;;23.77;16.85;;;;;;;4.08;100.00;99486.50;1718711;82;21031;-63
2021/12/10 07:17:39;;;;;;;22.50;16.40;;;;;;;4.12;100.00;99487.67;1719488;81;21567;-64
2021/12/10 07:20:07;;;;;;;21.10;15.35;;;;;;;4.14;100.00;99490.97;1707849;83;21071;-64
2021/12/10 07:22:34;;;;;;;22.77;16.32;;;;;;;4.15;100.00;99485.02;1717133;82;21031;-65
2021/12/10 07:25:03;;;;;;;22.48;15.88;;;;;;;4.18;100.00;99487.27;1717678;82;21610;-64
2021/12/10 07:27:30;;;;;;;22.45;15.93;;;;;;;4.23;100.00;99465.81;1717868;83;21382;-64
2021/12/10 07:29:57;;;;;;;22.58;14.90;;;;;;;4.27;100.00;99450.81;1714609;83;21660;-64
2021/12/10 07:32:23;;;;;;;29.98;20.27;;;;;;;4.33;100.00;99448.50;1696479;82;21592;-63
2021/12/10 07:34:49;;;;;;;29.60;18.75;;;;;;;4.37;100.00;99455.06;1687592;85;21577;-64
2021/12/10 07:37:16;;;;;;;31.55;18.70;;;;;;;4.45;100.00;99452.83;1688113;85;21122;-65
2021/12/10 07:39:42;;;;;;;;;;;;;;;4.50;100.00;99448.05;1722553;82;21584;-64
2021/12/10 07:42:09;;;;;;;25.82;16.67;;;;;;;4.53;100.00;99440.30;1732065;82;20111;-65
2021/12/10 07:44:37;;;;;;;21.42;14.73;;;;;;;4.47;100.00;99444.48;1709501;82;21107;-65
2021/12/10 07:47:05;;;;;;;;;;;;;;;4.50;100.00;99450.21;1734567;82;21064;-65
2021/12/10 07:49:32;;;;;;;22.32;15.40;;;;;;;4.57;100.00;99461.41;1737809;82;20111;-65
2021/12/10 07:51:59;;;;;;;23.00;16.20;;;;;;;4.58;100.00;99460.33;1729180;81;21035;-64
2021/12/10 07:54:25;;;;;;;20.72;14.38;;;;;;;4.58;100.00;99467.89;1722287;82;21959;-65
2021/12/10 07:56:53;;;;;;;20.62;15.23;;;;;;;4.63;100.00;99473.92;1726631;82;21035;-64
2021/12/10 07:59:20;;;;;;;20.90;15.28;;;;;;;4.63;100.00;99475.27;1729094;82;21016;-65
2021/12/10 08:01:46;;;;;;;21.23;15.28;;;;;;;4.62;100.00;99481.71;1735237;81;21039;-65
2021/12/10 08:04:13;;;;;;;19.98;14.85;;;;;;;4.64;100.00;99477.71;1729257;82;20960;-65
2021/12/10 08:06:39;;;;;;;20.82;15.55;;;;;;;4.66;100.00;99469.39;1719117;82;21515;-64
2021/12/10 08:09:08;;;;;;;20.57;15.05;;;;;;;4.67;100.00;99477.26;1734265;82;21075;-65
2021/12/10 08:11:35;;;;;;;23.27;16.07;;;;;;;4.69;100.00;99460.82;1725423;82;21098;-64
2021/12/10 08:14:02;;;;;;;20.30;13.75;;;;;;;4.70;100.00;99458.42;1737615;82;21510;-67
2021/12/10 08:16:30;;;;;;;20.05;14.78;;;;;;;4.75;100.00;99453.11;1735934;81;21031;-64
2021/12/10 08:18:57;;;;;;;20.60;13.90;;;;;;;4.78;100.00;99456.70;1731228;82;20960;-65
2021/12/10 08:21:24;;;;;;;21.70;15.28;;;;;;;4.80;100.00;99454.57;1717920;83;21604;-65
2021/12/10 08:23:53;;;;;;;22.15;16.20;;;;;;;4.82;100.00;99464.57;1730380;82;21503;-64
2021/12/10 08:26:20;;;;;;;28.40;19.20;;;;;;;4.85;100.00;99469.52;1730064;81;21486;-65
2021/12/10 08:28:47;;;;;;;27.80;18.87;;;;;;;4.87;100.00;99472.25;1741068;82;21027;-65
2021/12/10 08:31:15;;;;;;;;;;;;;;;4.90;100.00;99462.31;1748350;81;21035;-65
2021/12/10 08:33:44;;;;;;;29.50;19.77;;;;;;;4.92;100.00;99473.67;1722994;82;20481;-65
2021/12/10 08:36:10;;;;;;;26.37;20.02;;;;;;;4.89;100.00;99469.29;1725577;82;21114;-64
2021/12/10 08:38:37;;;;;;;22.52;15.90;;;;;;;4.90;100.00;99461.50;1727431;82;21003;-64
2021/12/10 08:41:14;;;;;;;24.37;16.97;;;;;;;4.93;100.00;99450.22;1734756;82;21137;-64
2021/12/10 08:43:40;;;;;;;24.90;16.97;;;;;;;4.96;100.00;99441.64;1737208;82;21470;-64
2021/12/10 08:46:08;;;;;;;21.95;16.80;;;;;;;5.01;100.00;99442.56;1743424;81;21082;-64
2021/12/10 08:48:34;;;;;;;21.42;16.20;;;;;;;5.06;100.00;99442.38;1734964;82;21499;-65
2021/12/10 08:51:07;;;;;;;23.32;17.45;;;;;;;5.08;100.00;99432.97;1725619;82;20995;-64
2021/12/10 08:53:34;;;;;;;24.72;17.27;;;;;;;5.13;100.00;99433.06;1728391;82;21431;-64
2021/12/10 08:56:01;;;;;;;21.27;16.57;;;;;;;5.17;100.00;99434.75;1730815;81;21014;-63
2021/12/10 08:58:28;;;;;;;21.00;15.78;;;;;;;5.20;100.00;99426.16;1737774;82;20991;-63
2021/12/10 09:01:00;;;;;;;23.77;16.52;;;;;;;5.25;100.00;99421.66;1745484;81;21038;-65
2021/12/10 09:03:26;;;;;;;24.70;18.05;;;;;;;5.27;100.00;99416.02;1740679;82;20998;-64
2021/12/10 09:05:54;;;;;;;22.85;17.02;;;;;;;5.30;100.00;99415.00;1745939;81;21071;-64
2021/12/10 09:08:22;;;;;;;22.60;16.70;;;;;;;5.32;100.00;99412.86;1739576;82;21902;-64
2021/12/10 09:10:48;;;;;;;;;;;;;;;5.32;100.00;99414.21;1718998;82;21070;-64
2021/12/10 09:13:20;;;;;;;24.02;17.52;;;;;;;5.34;100.00;99404.53;1707350;82;20142;-65
2021/12/10 09:15:48;;;;;;;25.00;17.87;;;;;;;5.29;100.00;99407.95;1733897;81;21070;-64
2021/12/10 09:18:15;;;;;;;23.18;16.73;;;;;;;5.32;100.00;99403.41;1733794;82;21062;-65
2021/12/10 09:20:49;;;;;;;28.77;18.15;;;;;;;5.35;100.00;99409.66;1732554;82;21082;-64
2021/12/10 09:23:19;;;;;;;26.52;18.95;;;;;;;5.38;100.00;99411.90;1742245;82;20976;-64
2021/12/10 09:25:46;;;;;;;25.60;17.35;;;;;;;5.39;100.00;99406.77;1735910;81;21534;-64
2021/12/10 09:28:12;;;;;;;24.15;17.62;;;;;;;5.40;100.00;99396.79;1733628;82;21027;-64
2021/12/10 09:30:41;;;;;;;27.98;18.57;;;;;;;5.41;100.00;99388.98;1725350;82;21616;-65
2021/12/10 09:33:08;;;;;;;23.22;17.67;;;;;;;5.40;100.00;99393.56;1724781;82;21090;-63
2021/12/10 09:35:36;;;;;;;22.90;16.42;;;;;;;5.40;100.00;99388.16;1733028;82;21030;-64
2021/12/10 09:38:03;;;;;;;24.35;16.97;;;;;;;5.40;100.00;99380.59;1723488;83;21047;-65
2021/12/10 09:40:36;;;;;;;23.07;16.17;;;;;;;5.39;100.00;99375.72;1721325;83;21522;-68
2021/12/10 09:43:04;;;;;;;22.98;16.15;;;;;;;5.41;100.00;99374.14;1724280;82;21059;-66
2021/12/10 09:45:32;;;;;;;20.85;15.40;;;;;;;5.41;100.00;99372.27;1735520;82;21055;-65
2021/12/10 09:47:59;;;;;;;21.42;15.58;;;;;;;5.42;100.00;99369.83;1737976;81;21040;-66
2021/12/10 09:50:29;;;;;;;20.65;15.50;;;;;;;5.42;99.99;99358.23;1701224;82;21092;-65
2021/12/10 09:52:55;;;;;;;19.10;13.62;;;;;;;5.43;99.93;99363.90;1732216;82;21070;-65
2021/12/10 09:55:23;;;;;;;22.58;16.00;;;;;;;5.44;99.89;99356.09;1730383;82;21082;-65
2021/12/10 09:57:51;;;;;;;21.00;16.17;;;;;;;5.44;99.87;99368.24;1738134;81;21051;-65
2021/12/10 10:00:41;;;;;;;17.87;13.90;;;;;;;5.43;99.89;99361.20;1712635;82;21051;-65
2021/12/10 10:03:10;;;;;;;18.90;15.10;;;;;;;5.44;99.79;99358.27;1724070;82;21126;-65
2021/12/10 10:05:37;;;;;;;21.87;14.55;;;;;;;5.45;99.73;99361.78;1723135;83;21577;-65
2021/12/10 10:08:08;;;;;;;21.52;15.10;;;;;;;5.44;99.75;99360.97;1718088;82;21110;-66
2021/12/10 10:10:35;;;;;;;18.37;14.43;;;;;;;5.46;99.73;99351.25;1692729;85;21106;-66
2021/12/10 10:13:02;;;;;;;24.60;16.27;;;;;;;5.47;99.68;99348.31;1736320;82;21930;-66
2021/12/10 10:15:33;;;;;;;22.82;17.23;;;;;;;5.47;99.66;99355.06;1731179;82;21067;-66
2021/12/10 10:18:02;;;;;;;22.45;15.80;;;;;;;5.47;99.68;99351.02;1719292;82;21078;-66
2021/12/10 10:20:30;;;;;;;21.93;16.82;;;;;;;5.48;99.71;99348.61;1731068;82;21561;-65
2021/12/10 10:22:56;;;;;;;21.15;16.70;;;;;;;5.50;99.66;99348.34;1724798;82;21055;-66
2021/12/10 10:25:25;;;;;;;23.77;17.20;;;;;;;5.51;99.57;99335.96;1724996;82;21040;-65
2021/12/10 10:27:52;;;;;;;25.17;17.82;;;;;;;5.54;99.47;99329.23;1726355;82;21071;-65
2021/12/10 10:30:28;;;;;;;26.73;18.40;;;;;;;5.57;99.48;99331.97;1728415;82;21573;-66
2021/12/10 10:32:55;;;;;;;29.63;19.35;;;;;;;5.59;99.44;99330.67;1708166;82;21632;-66
2021/12/10 10:35:27;;;;;;;25.95;19.30;;;;;;;5.61;99.39;99327.17;1709661;83;21039;-65
2021/12/10 10:37:54;;;;;;;24.95;19.77;;;;;;;5.62;99.33;99320.72;1704613;82;21441;-66
2021/12/10 10:40:28;;;;;;;27.55;20.60;;;;;;;5.65;99.29;99316.70;1719211;82;21039;-66
2021/12/10 10:42:55;;;;;;;25.25;19.37;;;;;;;5.65;99.20;99316.16;1716718;83;21052;-65
2021/12/10 10:45:25;;;;;;;28.05;21.00;;;;;;;5.62;99.24;99311.27;1717980;83;21047;-65
2021/12/10 10:47:53;;;;;;;27.75;20.23;;;;;;;5.62;99.19;99304.52;1719414;82;21584;-66
2021/12/10 10:50:25;;;;;;;26.48;19.65;;;;;;;5.62;99.09;99304.52;1731932;82;21083;-65
2021/12/10 10:52:58;;;;;;;26.97;19.48;;;;;;;5.62;99.03;99291.55;1717325;82;21066;-66
2021/12/10 10:55:33;;;;;;;26.55;19.40;;;;;;;5.60;99.02;99293.69;1717723;83;21051;-65
2021/12/10 10:58:12;;;;;;;25.72;19.37;;;;;;;5.60;99.02;99297.18;1715499;83;21035;-65
2021/12/10 11:00:50;;;;;;;27.02;20.57;;;;;;;5.59;99.04;99298.80;1717925;82;21039;-65
2021/12/10 11:03:20;;;;;;;26.93;20.15;;;;;;;5.57;99.18;99303.61;1723639;82;21027;-65
2021/12/10 11:05:51;;;;;;;27.73;20.30;;;;;;;5.56;99.22;99299.30;1722030;81;21062;-65
2021/12/10 11:08:38;;;;;;;30.05;20.15;;;;;;;5.58;99.23;99294.45;1724682;82;20984;-65
2021/12/10 11:11:15;;;;;;;26.80;19.32;;;;;;;5.58;99.30;99285.83;1701913;83;21569;-65
2021/12/10 11:13:48;;;;;;;25.15;18.85;;;;;;;5.58;99.32;99296.62;1709728;82;21018;-65
2021/12/10 11:16:21;;;;;;;25.37;19.77;;;;;;;5.59;99.34;99297.45;1707035;82;21028;-65
2021/12/10 11:19:05;;;;;;;27.45;20.27;;;;;;;5.60;99.36;99296.39;1717776;83;21047;-65
2021/12/10 11:21:46;;;;;;;28.32;19.62;;;;;;;5.61;99.39;99291.25;1725833;82;21095;-64
2021/12/10 11:24:37;;;;;;;28.80;21.33;;;;;;;5.62;99.40;99286.97;1716025;82;21008;-65
2021/12/10 11:27:08;;;;;;;30.05;20.65;;;;;;;5.63;99.40;99278.34;1727455;82;21043;-65
2021/12/10 11:29:51;;;;;;;30.57;22.65;;;;;;;5.65;99.40;99268.09;1728268;82;21538;-65
2021/12/10 11:32:37;;;;;;;31.05;22.65;;;;;;;5.63;99.41;99263.48;1722932;82;21130;-64
2021/12/10 11:35:22;;;;;;;28.73;21.48;;;;;;;5.62;99.42;99264.02;1723283;83;21683;-65
2021/12/10 11:38:05;;;;;;;31.00;22.32;;;;;;;5.61;99.45;99261.55;1735265;82;21465;-64
2021/12/10 11:40:40;;;;;;;28.20;21.37;;;;;;;5.60;99.51;99255.33;1714417;82;21620;-67
2021/12/10 11:48:38;;;;;;;29.67;21.97;;;;;;;5.65;99.61;99218.13;1723040;82;21007;-65
2021/12/10 11:51:20;;;;;;;30.27;23.02;;;;;;;5.63;99.90;99214.35;1735910;81;21545;-65
2021/12/10 11:53:52;;;;;;;31.68;22.52;;;;;;;5.67;99.97;99240.31;1729912;82;20971;-65
2021/12/10 11:56:38;;;;;;;33.80;23.57;;;;;;;5.67;100.00;99241.66;1723925;82;21051;-65
2021/12/10 11:59:17;;;;;;;31.37;23.12;;;;;;;5.69;100.00;99236.81;1720875;83;21011;-65
2021/12/10 12:01:52;;;;;;;32.50;22.40;;;;;;;5.69;100.00;99241.69;1723112;82;21078;-65
2021/12/10 12:04:51;;;;;;;29.55;23.00;;;;;;;5.69;100.00;99238.17;1717537;83;21055;-64
2021/12/10 12:07:23;;;;;;;31.40;23.70;;;;;;;5.68;100.00;99236.53;1726988;82;21012;-64
2021/12/10 12:09:57;;;;;;;35.10;24.35;;;;;;;5.66;100.00;99245.42;1722994;83;21059;-64
2021/12/10 12:12:29;;;;;;;33.38;24.47;;;;;;;5.65;100.00;99241.08;1728454;81;21608;-65
2021/12/10 12:15:31;;;;;;;33.40;24.98;;;;;;;5.65;100.00;99239.73;1723120;82;21522;-64
2021/12/10 12:18:03;;;;;;;31.73;24.07;;;;;;;5.67;100.00;99238.41;1723151;83;21118;-64
2021/12/10 12:20:47;;;;;;;31.50;23.57;;;;;;;5.69;100.00;99226.02;1701324;82;21582;-64
2021/12/10 12:26:21;;;;;;;29.12;21.57;;;;;;;5.73;100.00;99227.97;1720512;82;21078;-64
2021/12/10 12:29:07;;;;;;;32.80;24.35;;;;;;;5.72;100.00;99224.98;1725428;83;21067;-64
2021/12/10 12:31:40;;;;;;;30.85;24.30;;;;;;;5.73;100.00;99221.75;1704119;82;21059;-64
2021/12/10 12:34:23;;;;;;;31.15;24.20;;;;;;;5.74;100.00;99230.14;1696930;82;20976;-65
2021/12/10 12:37:01;;;;;;;30.10;22.85;;;;;;;5.76;100.00;99226.64;1726040;82;21047;-64
2021/12/10 12:39:55;;;;;;;32.23;24.60;;;;;;;5.77;100.00;99229.09;1704783;82;21026;-65
2021/12/10 12:42:35;;;;;;;32.48;23.50;;;;;;;5.82;100.00;99228.31;1694530;84;21118;-64
2021/12/10 12:45:19;;;;;;;28.27;22.10;;;;;;;5.83;100.00;99218.63;1727316;82;21433;-64
2021/12/10 12:47:48;;;;;;;31.02;23.30;;;;;;;5.85;100.00;99229.98;1740754;82;21063;-65
2021/12/10 12:50:25;;;;;;;33.02;25.80;;;;;;;5.87;100.00;99224.37;1703609;82;21029;-65
2021/12/10 12:52:59;;;;;;;37.35;25.20;;;;;;;5.87;100.00;99218.97;1695064;85;21110;-65
2021/12/10 12:55:52;;;;;;;38.98;27.30;;;;;;;5.87;100.00;99223.02;1738582;82;20991;-64
2021/12/10 12:58:55;;;;;;;34.18;24.50;;;;;;;5.91;100.00;99210.64;1732469;82;21043;-64
2021/12/10 13:01:38;;;;;;;33.95;24.05;;;;;;;5.93;100.00;99210.66;1731692;82;21054;-64
2021/12/10 13:04:09;;;;;;;36.13;25.75;;;;;;;5.94;100.00;99208.24;1725775;83;21552;-64
2021/12/10 13:06:56;;;;;;;31.48;23.02;;;;;;;5.94;100.00;99211.48;1726322;82;21529;-62
2021/12/10 13:09:35;;;;;;;33.05;23.73;;;;;;;5.96;100.00;99210.67;1723897;82;21042;-64
2021/12/10 13:12:09;;;;;;;30.92;22.77;;;;;;;5.97;100.00;99200.16;1717836;81;21552;-64
2021/12/10 13:14:48;;;;;;;36.00;26.33;;;;;;;5.99;100.00;99200.17;1724377;83;21018;-63
2021/12/10 13:17:29;;;;;;;34.78;24.98;;;;;;;6.00;100.00;99203.16;1725706;81;21626;-64
2021/12/10 13:19:56;;;;;;;33.30;24.82;;;;;;;6.02;100.00;99200.22;1741229;82;20990;-64
2021/12/10 13:22:24;;;;;;;;;;;;;;;6.03;100.00;99203.18;1744398;81;21015;-64
2021/12/10 13:24:54;;;;;;;39.30;26.65;;;;;;;6.03;100.00;99200.48;1714717;82;20115;-64
2021/12/10 13:27:23;;;;;;;35.83;25.40;;;;;;;5.99;100.00;99202.88;1739829;81;21047;-64
2021/12/10 13:29:50;;;;;;;37.93;26.35;;;;;;;6.03;100.00;99210.47;1738551;82;20956;-64
2021/12/10 13:32:16;;;;;;;;;;;;;;;6.06;100.00;99198.61;1733962;81;21099;-65
2021/12/10 13:34:42;;;;;;;36.98;25.92;;;;;;;6.08;100.00;99192.44;1694665;85;20144;-64
2021/12/10 13:37:11;;;;;;;38.63;25.43;;;;;;;6.06;100.00;99190.51;1694460;83;21592;-64
2021/12/10 13:39:43;;;;;;;38.65;25.90;;;;;;;6.05;100.00;99187.55;1694646;85;21501;-64